createdAt,value
2022-12-05T00:00:03.420Z,18.44
2022-12-05T00:00:34.832Z,18.44
2022-12-05T00:01:06.233Z,18.44
2022-12-05T00:01:37.722Z,18.42
2022-12-05T00:02:09.225Z,18.43
2022-12-05T00:02:40.699Z,18.42
2022-12-05T00:03:12.150Z,18.41
2022-12-05T00:03:43.591Z,18.41
2022-12-05T00:04:15.131Z,18.41
2022-12-05T00:04:46.625Z,18.41
2022-12-05T00:05:18.037Z,18.40
2022-12-05T00:05:49.439Z,18.40
2022-12-05T00:06:20.827Z,18.40
2022-12-05T00:06:52.284Z,18.39
2022-12-05T00:07:23.739Z,18.39
2022-12-05T00:07:55.220Z,18.39
2022-12-05T00:08:26.691Z,18.39
2022-12-05T00:08:58.088Z,18.38
2022-12-05T00:09:29.470Z,18.38
2022-12-05T00:10:00.899Z,18.37
2022-12-05T00:10:32.340Z,18.37
2022-12-05T00:11:03.730Z,18.37
2022-12-05T00:11:35.121Z,18.36
2022-12-05T00:12:06.528Z,18.36
2022-12-05T00:12:38.051Z,18.35
2022-12-05T00:13:09.444Z,18.35
2022-12-05T00:13:40.835Z,18.35
2022-12-05T00:14:12.231Z,18.35
2022-12-05T00:14:43.619Z,18.35
2022-12-05T00:15:15.012Z,18.34
2022-12-05T00:15:46.404Z,18.34
2022-12-05T00:16:17.847Z,18.33
2022-12-05T00:16:49.375Z,18.33
2022-12-05T00:17:20.859Z,18.33
2022-12-05T00:17:52.300Z,18.33
2022-12-05T00:18:23.696Z,18.32
2022-12-05T00:18:55.092Z,18.32
2022-12-05T00:19:26.488Z,18.31
2022-12-05T00:19:58.440Z,18.31
2022-12-05T00:20:30.158Z,18.31
2022-12-05T00:21:01.554Z,18.29
2022-12-05T00:21:32.941Z,18.30
2022-12-05T00:22:04.343Z,18.30
2022-12-05T00:22:35.727Z,18.29
2022-12-05T00:23:07.182Z,18.29
2022-12-05T00:23:38.576Z,18.28
2022-12-05T00:24:09.964Z,18.28
2022-12-05T00:24:41.355Z,18.28
2022-12-05T00:25:12.743Z,18.27
2022-12-05T00:25:44.140Z,18.26
2022-12-05T00:26:15.556Z,18.26
2022-12-05T00:26:46.938Z,18.25
2022-12-05T00:27:18.324Z,18.25
2022-12-05T00:27:49.730Z,18.25
2022-12-05T00:28:21.239Z,18.23
2022-12-05T00:28:52.627Z,18.24
2022-12-05T00:29:24.079Z,18.24
2022-12-05T00:29:55.839Z,18.23
2022-12-05T00:30:27.479Z,18.23
2022-12-05T00:30:58.887Z,18.22
2022-12-05T00:31:30.329Z,18.22
2022-12-05T00:32:01.857Z,18.22
2022-12-05T00:32:33.320Z,18.22
2022-12-05T00:33:04.727Z,18.22
2022-12-05T00:33:36.136Z,18.19
2022-12-05T00:34:07.538Z,18.19
2022-12-05T00:34:38.923Z,18.20
2022-12-05T00:35:10.320Z,18.19
2022-12-05T00:35:41.707Z,18.18
2022-12-05T00:36:13.112Z,18.19
2022-12-05T00:36:44.498Z,18.18
2022-12-05T00:37:15.904Z,18.17
2022-12-05T00:37:47.297Z,18.18
2022-12-05T00:38:18.688Z,18.18
2022-12-05T00:38:50.191Z,18.17
2022-12-05T00:39:21.579Z,18.17
2022-12-05T00:39:52.976Z,18.16
2022-12-05T00:40:24.378Z,18.16
2022-12-05T00:40:55.774Z,18.16
2022-12-05T00:41:27.195Z,18.15
2022-12-05T00:41:58.600Z,18.15
2022-12-05T00:42:29.992Z,18.14
2022-12-05T00:43:01.380Z,18.14
2022-12-05T00:43:32.777Z,18.15
2022-12-05T00:44:04.251Z,18.13
2022-12-05T00:44:35.647Z,18.14
2022-12-05T00:45:07.078Z,18.13
2022-12-05T00:45:38.553Z,18.13
2022-12-05T00:46:10.092Z,18.13
2022-12-05T00:46:41.559Z,18.13
2022-12-05T00:47:12.943Z,18.12
2022-12-05T00:47:44.339Z,18.12
2022-12-05T00:48:15.755Z,18.11
2022-12-05T00:48:47.180Z,18.11
2022-12-05T00:49:18.562Z,18.10
2022-12-05T00:49:49.951Z,18.10
2022-12-05T00:50:21.344Z,18.09
2022-12-05T00:50:52.730Z,18.09
2022-12-05T00:51:24.123Z,18.09
2022-12-05T00:51:55.523Z,18.08
2022-12-05T00:52:26.947Z,18.09
2022-12-05T00:52:58.354Z,18.08
2022-12-05T00:53:29.748Z,18.08
2022-12-05T00:54:01.244Z,18.08
2022-12-05T00:54:32.650Z,18.08
2022-12-05T00:55:04.043Z,18.06
2022-12-05T00:55:35.439Z,18.06
2022-12-05T00:56:06.840Z,18.05
2022-12-05T00:56:38.226Z,18.05
2022-12-05T00:57:09.616Z,18.05
2022-12-05T00:57:41.006Z,18.04
2022-12-05T00:58:12.397Z,18.04
2022-12-05T00:58:43.788Z,18.04
2022-12-05T00:59:15.287Z,18.03
2022-12-05T00:59:46.676Z,18.03
2022-12-05T01:00:18.089Z,18.03
2022-12-05T01:00:49.526Z,18.02
2022-12-05T01:01:21.016Z,18.02
2022-12-05T01:01:52.571Z,18.02
2022-12-05T01:02:24.019Z,18.02
2022-12-05T01:02:55.520Z,18.01
2022-12-05T01:03:26.991Z,18.01
2022-12-05T01:03:58.451Z,18.01
2022-12-05T01:04:29.954Z,18.01
2022-12-05T01:05:01.511Z,18.00
2022-12-05T01:05:32.918Z,17.99
2022-12-05T01:06:04.322Z,18.00
2022-12-05T01:06:35.730Z,17.99
2022-12-05T01:07:07.127Z,17.99
2022-12-05T01:07:38.544Z,17.99
2022-12-05T01:08:10.002Z,17.98
2022-12-05T01:08:41.503Z,17.98
2022-12-05T01:09:12.997Z,17.98
2022-12-05T01:09:44.436Z,17.98
2022-12-05T01:10:15.831Z,17.97
2022-12-05T01:10:47.222Z,17.96
2022-12-05T01:11:18.612Z,17.96
2022-12-05T01:11:50.021Z,17.96
2022-12-05T01:12:21.427Z,17.96
2022-12-05T01:12:52.819Z,17.96
2022-12-05T01:13:24.206Z,17.95
2022-12-05T01:13:55.595Z,17.96
2022-12-05T01:14:27.016Z,17.95
2022-12-05T01:14:58.508Z,17.95
2022-12-05T01:15:29.895Z,17.93
2022-12-05T01:16:01.283Z,17.94
2022-12-05T01:16:32.783Z,17.94
2022-12-05T01:17:04.316Z,17.93
2022-12-05T01:17:35.758Z,17.94
2022-12-05T01:18:07.165Z,17.93
2022-12-05T01:18:38.575Z,17.92
2022-12-05T01:19:10.006Z,17.93
2022-12-05T01:19:41.399Z,17.92
2022-12-05T01:20:12.854Z,17.91
2022-12-05T01:20:44.266Z,17.91
2022-12-05T01:21:15.674Z,17.91
2022-12-05T01:21:47.072Z,17.91
2022-12-05T01:22:18.469Z,17.90
2022-12-05T01:22:49.870Z,17.91
2022-12-05T01:23:21.260Z,17.90
2022-12-05T01:23:52.656Z,17.89
2022-12-05T01:24:24.044Z,17.89
2022-12-05T01:24:55.452Z,17.88
2022-12-05T01:25:26.910Z,17.88
2022-12-05T01:25:58.294Z,17.88
2022-12-05T01:26:29.683Z,17.88
2022-12-05T01:27:01.082Z,17.88
2022-12-05T01:27:32.470Z,17.88
2022-12-05T01:28:03.860Z,17.87
2022-12-05T01:28:35.274Z,17.86
2022-12-05T01:29:06.769Z,17.87
2022-12-05T01:29:38.196Z,17.86
2022-12-05T01:30:09.645Z,17.86
2022-12-05T01:30:41.055Z,17.86
2022-12-05T01:31:12.444Z,17.85
2022-12-05T01:31:43.872Z,17.85
2022-12-05T01:32:15.295Z,17.85
2022-12-05T01:32:46.715Z,17.84
2022-12-05T01:33:18.111Z,17.85
2022-12-05T01:33:49.534Z,17.85
2022-12-05T01:34:20.925Z,17.84
2022-12-05T01:34:52.312Z,17.83
2022-12-05T01:35:23.726Z,17.83
2022-12-05T01:35:55.240Z,17.83
2022-12-05T01:36:26.646Z,17.83
2022-12-05T01:36:58.038Z,17.82
2022-12-05T01:37:29.448Z,17.82
2022-12-05T01:38:00.847Z,17.82
2022-12-05T01:38:32.251Z,17.82
2022-12-05T01:39:03.654Z,17.82
2022-12-05T01:39:35.042Z,17.81
2022-12-05T01:40:06.469Z,17.81
2022-12-05T01:40:37.863Z,17.81
2022-12-05T01:41:09.295Z,17.80
2022-12-05T01:41:40.685Z,17.80
2022-12-05T01:42:12.094Z,17.79
2022-12-05T01:42:43.474Z,17.79
2022-12-05T01:43:14.884Z,17.80
2022-12-05T01:43:46.298Z,17.78
2022-12-05T01:44:17.695Z,17.78
2022-12-05T01:44:49.090Z,17.78
2022-12-05T01:45:20.487Z,17.78
2022-12-05T01:45:52.067Z,17.77
2022-12-05T01:46:23.609Z,17.78
2022-12-05T01:46:55.085Z,17.77
2022-12-05T01:47:26.520Z,17.77
2022-12-05T01:47:57.924Z,17.77
2022-12-05T01:48:29.410Z,17.77
2022-12-05T01:49:00.818Z,17.76
2022-12-05T01:49:32.227Z,17.75
2022-12-05T01:50:03.622Z,17.75
2022-12-05T01:50:35.012Z,17.75
2022-12-05T01:51:06.496Z,17.74
2022-12-05T01:51:37.888Z,17.74
2022-12-05T01:52:09.280Z,17.75
2022-12-05T01:52:40.696Z,17.73
2022-12-05T01:53:12.084Z,17.73
2022-12-05T01:53:43.484Z,17.73
2022-12-05T01:54:14.867Z,17.73
2022-12-05T01:54:46.320Z,17.72
2022-12-05T01:55:17.731Z,17.72
2022-12-05T01:55:49.118Z,17.71
2022-12-05T01:56:20.547Z,17.71
2022-12-05T01:56:51.955Z,17.71
2022-12-05T01:57:23.343Z,17.70
2022-12-05T01:57:54.737Z,17.70
2022-12-05T01:58:26.142Z,17.70
2022-12-05T01:58:57.526Z,17.71
2022-12-05T01:59:28.946Z,17.69
2022-12-05T02:00:00.581Z,17.69
2022-12-05T02:00:32.102Z,17.68
2022-12-05T02:01:03.577Z,17.69
2022-12-05T02:01:35.227Z,17.68
2022-12-05T02:02:06.702Z,17.68
2022-12-05T02:02:38.245Z,17.68
2022-12-05T02:03:09.709Z,17.67
2022-12-05T02:03:41.101Z,17.67
2022-12-05T02:04:12.504Z,17.66
2022-12-05T02:04:43.896Z,17.67
2022-12-05T02:05:15.319Z,17.66
2022-12-05T02:05:46.728Z,17.65
2022-12-05T02:06:18.115Z,17.66
2022-12-05T02:06:49.607Z,17.65
2022-12-05T02:07:20.995Z,17.65
2022-12-05T02:07:52.443Z,17.65
2022-12-05T02:08:23.941Z,17.65
2022-12-05T02:08:55.391Z,17.63
2022-12-05T02:09:26.807Z,17.63
2022-12-05T02:09:58.394Z,17.63
2022-12-05T02:10:29.927Z,17.62
2022-12-05T02:11:01.339Z,17.62
2022-12-05T02:11:32.733Z,17.62
2022-12-05T02:12:04.263Z,17.62
2022-12-05T02:12:37.196Z,17.62
2022-12-05T02:13:10.220Z,17.61
2022-12-05T02:13:41.616Z,17.62
2022-12-05T02:14:13.005Z,17.62
2022-12-05T02:14:44.393Z,17.60
2022-12-05T02:15:15.850Z,17.61
2022-12-05T02:15:50.032Z,17.60
2022-12-05T02:16:25.303Z,17.60
2022-12-05T02:16:56.813Z,17.61
2022-12-05T02:17:28.363Z,17.60
2022-12-05T02:17:59.745Z,17.60
2022-12-05T02:18:31.147Z,17.59
2022-12-05T02:19:02.544Z,17.60
2022-12-05T02:19:33.954Z,17.60
2022-12-05T02:20:05.342Z,17.59
2022-12-05T02:20:36.726Z,17.59
2022-12-05T02:21:08.120Z,17.57
2022-12-05T02:21:39.514Z,17.59
2022-12-05T02:22:10.906Z,17.58
2022-12-05T02:22:42.439Z,17.58
2022-12-05T02:23:13.837Z,17.58
2022-12-05T02:23:45.225Z,17.57
2022-12-05T02:24:16.659Z,17.57
2022-12-05T02:24:48.048Z,17.57
2022-12-05T02:25:19.456Z,17.57
2022-12-05T02:25:50.855Z,17.57
2022-12-05T02:26:22.248Z,17.56
2022-12-05T02:26:53.645Z,17.55
2022-12-05T02:27:25.031Z,17.56
2022-12-05T02:27:56.453Z,17.56
2022-12-05T02:28:27.906Z,17.56
2022-12-05T02:28:59.306Z,17.56
2022-12-05T02:29:30.725Z,17.55
2022-12-05T02:30:02.110Z,17.54
2022-12-05T02:30:33.518Z,17.55
2022-12-05T02:31:04.974Z,17.53
2022-12-05T02:31:36.579Z,17.53
2022-12-05T02:32:08.049Z,17.53
2022-12-05T02:32:39.439Z,17.54
2022-12-05T02:33:10.950Z,17.53
2022-12-05T02:33:42.362Z,17.52
2022-12-05T02:34:13.753Z,17.52
2022-12-05T02:34:45.158Z,17.52
2022-12-05T02:35:16.551Z,17.52
2022-12-05T02:35:47.939Z,17.51
2022-12-05T02:36:19.343Z,17.51
2022-12-05T02:36:50.734Z,17.49
2022-12-05T02:37:22.119Z,17.51
2022-12-05T02:37:53.521Z,17.49
2022-12-05T02:38:25.012Z,17.49
2022-12-05T02:38:56.398Z,17.49
2022-12-05T02:39:27.808Z,17.48
2022-12-05T02:39:59.415Z,17.49
2022-12-05T02:40:30.982Z,17.48
2022-12-05T02:41:02.368Z,17.48
2022-12-05T02:41:33.750Z,17.47
2022-12-05T02:42:05.134Z,17.48
2022-12-05T02:42:36.544Z,17.48
2022-12-05T02:43:07.932Z,17.46
2022-12-05T02:43:39.389Z,17.48
2022-12-05T02:44:10.770Z,17.46
2022-12-05T02:44:42.173Z,17.47
2022-12-05T02:45:13.555Z,17.46
2022-12-05T02:45:44.988Z,17.46
2022-12-05T02:46:16.397Z,17.45
2022-12-05T02:46:47.807Z,17.46
2022-12-05T02:47:19.208Z,17.45
2022-12-05T02:47:50.597Z,17.45
2022-12-05T02:48:21.983Z,17.45
2022-12-05T02:48:53.400Z,17.45
2022-12-05T02:49:24.799Z,17.43
2022-12-05T02:49:56.593Z,17.43
2022-12-05T02:50:28.275Z,17.43
2022-12-05T02:50:59.687Z,17.42
2022-12-05T02:51:31.099Z,17.43
2022-12-05T02:52:02.507Z,17.43
2022-12-05T02:52:33.916Z,17.42
2022-12-05T02:53:05.307Z,17.42
2022-12-05T02:53:36.718Z,17.42
2022-12-05T02:54:08.140Z,17.41
2022-12-05T02:54:39.533Z,17.40
2022-12-05T02:55:10.984Z,17.40
2022-12-05T02:55:42.376Z,17.41
2022-12-05T02:56:13.798Z,17.40
2022-12-05T02:56:45.204Z,17.40
2022-12-05T02:57:16.592Z,17.39
2022-12-05T02:57:47.980Z,17.39
2022-12-05T02:58:19.367Z,17.38
2022-12-05T02:58:50.751Z,17.39
2022-12-05T02:59:23.761Z,17.38
2022-12-05T02:59:55.617Z,17.37
2022-12-05T03:00:27.191Z,17.37
2022-12-05T03:00:58.626Z,17.38
2022-12-05T03:01:30.136Z,17.36
2022-12-05T03:02:01.594Z,17.37
2022-12-05T03:02:32.978Z,17.37
2022-12-05T03:03:04.387Z,17.36
2022-12-05T03:03:35.788Z,17.36
2022-12-05T03:04:07.205Z,17.37
2022-12-05T03:04:38.807Z,17.36
2022-12-05T03:05:10.283Z,17.36
2022-12-05T03:05:41.672Z,17.35
2022-12-05T03:06:13.075Z,17.34
2022-12-05T03:06:44.486Z,17.35
2022-12-05T03:07:15.898Z,17.34
2022-12-05T03:07:47.349Z,17.33
2022-12-05T03:08:18.848Z,17.33
2022-12-05T03:08:50.311Z,17.32
2022-12-05T03:09:21.741Z,17.33
2022-12-05T03:09:53.159Z,17.33
2022-12-05T03:10:24.546Z,17.33
2022-12-05T03:10:55.959Z,17.32
2022-12-05T03:11:27.348Z,17.32
2022-12-05T03:11:58.754Z,17.32
2022-12-05T03:12:30.143Z,17.33
2022-12-05T03:13:01.557Z,17.32
2022-12-05T03:13:32.946Z,17.32
2022-12-05T03:14:04.329Z,17.32
2022-12-05T03:14:35.788Z,17.31
2022-12-05T03:15:07.183Z,17.31
2022-12-05T03:15:38.575Z,17.30
2022-12-05T03:16:09.982Z,17.31
2022-12-05T03:16:41.495Z,17.30
2022-12-05T03:17:12.980Z,17.30
2022-12-05T03:17:44.375Z,17.30
2022-12-05T03:18:15.767Z,17.29
2022-12-05T03:18:47.170Z,17.30
2022-12-05T03:19:18.553Z,17.29
2022-12-05T03:19:50.059Z,17.29
2022-12-05T03:20:21.451Z,17.28
2022-12-05T03:20:52.863Z,17.28
2022-12-05T03:21:24.474Z,17.29
2022-12-05T03:21:55.923Z,17.27
2022-12-05T03:22:27.334Z,17.27
2022-12-05T03:22:58.794Z,17.27
2022-12-05T03:23:30.198Z,17.27
2022-12-05T03:24:01.609Z,17.27
2022-12-05T03:24:33.019Z,17.27
2022-12-05T03:25:04.446Z,17.27
2022-12-05T03:25:35.830Z,17.27
2022-12-05T03:26:07.236Z,17.27
2022-12-05T03:26:38.629Z,17.26
2022-12-05T03:27:10.029Z,17.26
2022-12-05T03:27:41.425Z,17.26
2022-12-05T03:28:12.830Z,17.26
2022-12-05T03:28:44.244Z,17.25
2022-12-05T03:29:15.628Z,17.26
2022-12-05T03:29:47.031Z,17.25
2022-12-05T03:30:18.470Z,17.25
2022-12-05T03:30:49.949Z,17.26
2022-12-05T03:31:21.475Z,17.25
2022-12-05T03:31:52.930Z,17.25
2022-12-05T03:32:24.343Z,17.25
2022-12-05T03:32:55.740Z,17.24
2022-12-05T03:33:27.133Z,17.24
2022-12-05T03:33:58.549Z,17.24
2022-12-05T03:34:29.936Z,17.23
2022-12-05T03:35:01.380Z,17.23
2022-12-05T03:35:32.786Z,17.23
2022-12-05T03:36:04.186Z,17.22
2022-12-05T03:36:35.586Z,17.23
2022-12-05T03:37:06.974Z,17.23
2022-12-05T03:37:38.386Z,17.23
2022-12-05T03:38:09.779Z,17.22
2022-12-05T03:38:41.166Z,17.22
2022-12-05T03:39:12.550Z,17.22
2022-12-05T03:39:43.944Z,17.21
2022-12-05T03:40:15.454Z,17.21
2022-12-05T03:40:46.847Z,17.22
2022-12-05T03:41:18.237Z,17.21
2022-12-05T03:41:49.622Z,17.22
2022-12-05T03:42:21.030Z,17.21
2022-12-05T03:42:52.423Z,17.21
2022-12-05T03:43:23.814Z,17.19
2022-12-05T03:43:55.220Z,17.20
2022-12-05T03:44:26.603Z,17.18
2022-12-05T03:44:57.994Z,17.19
2022-12-05T03:45:29.419Z,17.19
2022-12-05T03:46:00.924Z,17.19
2022-12-05T03:46:32.443Z,17.18
2022-12-05T03:47:03.895Z,17.19
2022-12-05T03:47:35.289Z,17.18
2022-12-05T03:48:06.675Z,17.17
2022-12-05T03:48:38.087Z,17.17
2022-12-05T03:49:09.494Z,17.17
2022-12-05T03:49:40.899Z,17.17
2022-12-05T03:50:12.291Z,17.17
2022-12-05T03:50:43.784Z,17.16
2022-12-05T03:51:15.196Z,17.16
2022-12-05T03:51:46.668Z,17.16
2022-12-05T03:52:18.055Z,17.15
2022-12-05T03:53:18.194Z,17.15
2022-12-05T03:53:40.832Z,17.14
2022-12-05T03:54:12.215Z,17.15
2022-12-05T03:54:43.607Z,17.15
2022-12-05T03:55:14.990Z,17.15
2022-12-05T03:55:46.491Z,17.15
2022-12-05T03:56:17.885Z,17.13
2022-12-05T03:56:49.276Z,17.13
2022-12-05T03:57:20.682Z,17.13
2022-12-05T03:57:52.077Z,17.13
2022-12-05T03:58:23.469Z,17.13
2022-12-05T03:58:54.859Z,17.13
2022-12-05T03:59:26.251Z,17.12
2022-12-05T03:59:57.936Z,17.13
2022-12-05T04:00:29.600Z,17.13
2022-12-05T04:01:01.043Z,17.12
2022-12-05T04:01:32.498Z,17.11
2022-12-05T04:02:03.996Z,17.11
2022-12-05T04:02:35.446Z,17.11
2022-12-05T04:03:06.869Z,17.11
2022-12-05T04:03:38.318Z,17.10
2022-12-05T04:04:09.777Z,17.10
2022-12-05T04:04:41.166Z,17.11
2022-12-05T04:05:12.557Z,17.09
2022-12-05T04:05:43.943Z,17.09
2022-12-05T04:06:15.411Z,17.09
2022-12-05T04:06:46.799Z,17.09
2022-12-05T04:07:18.188Z,17.08
2022-12-05T04:07:49.592Z,17.09
2022-12-05T04:08:21.054Z,17.08
2022-12-05T04:08:52.463Z,17.08
2022-12-05T04:09:23.871Z,17.08
2022-12-05T04:09:55.534Z,17.08
2022-12-05T04:10:27.436Z,17.07
2022-12-05T04:10:58.835Z,17.08
2022-12-05T04:11:30.296Z,17.07
2022-12-05T04:12:01.695Z,17.07
2022-12-05T04:12:33.092Z,17.07
2022-12-05T04:13:04.486Z,17.06
2022-12-05T04:13:35.872Z,17.06
2022-12-05T04:14:07.258Z,17.07
2022-12-05T04:14:38.672Z,17.05
2022-12-05T04:15:10.065Z,17.06
2022-12-05T04:15:41.522Z,17.05
2022-12-05T04:16:13.072Z,17.05
2022-12-05T04:16:44.515Z,17.05
2022-12-05T04:17:15.914Z,17.04
2022-12-05T04:17:53.242Z,17.04
2022-12-05T04:18:25.252Z,17.03
2022-12-05T04:18:56.659Z,17.04
2022-12-05T04:19:28.134Z,17.04
2022-12-05T04:19:59.748Z,17.03
2022-12-05T04:20:31.373Z,17.03
2022-12-05T04:21:02.771Z,17.03
2022-12-05T04:21:34.259Z,17.04
2022-12-05T04:22:05.648Z,17.03
2022-12-05T04:22:37.062Z,17.03
2022-12-05T04:23:08.456Z,17.03
2022-12-05T04:23:42.401Z,17.02
2022-12-05T04:24:17.791Z,17.02
2022-12-05T04:24:49.202Z,17.01
2022-12-05T04:25:20.626Z,17.01
2022-12-05T04:25:52.011Z,17.01
2022-12-05T04:26:23.457Z,17.01
2022-12-05T04:26:54.910Z,17.01
2022-12-05T04:27:26.295Z,17.01
2022-12-05T04:27:57.749Z,17.00
2022-12-05T04:28:29.155Z,17.01
2022-12-05T04:29:00.537Z,17.00
2022-12-05T04:29:31.953Z,17.00
2022-12-05T04:30:03.360Z,17.00
2022-12-05T04:30:34.766Z,17.00
2022-12-05T04:31:06.232Z,16.99
2022-12-05T04:31:37.734Z,16.98
2022-12-05T04:32:09.183Z,16.98
2022-12-05T04:32:40.584Z,16.98
2022-12-05T04:33:12.009Z,16.98
2022-12-05T04:33:43.400Z,16.98
2022-12-05T04:34:14.824Z,16.98
2022-12-05T04:34:46.215Z,16.97
2022-12-05T04:35:17.626Z,16.97
2022-12-05T04:35:49.010Z,16.98
2022-12-05T04:36:20.400Z,16.97
2022-12-05T04:36:51.856Z,16.97
2022-12-05T04:37:23.307Z,16.97
2022-12-05T04:37:54.714Z,16.96
2022-12-05T04:38:26.102Z,16.96
2022-12-05T04:38:57.496Z,16.96
2022-12-05T04:39:28.883Z,16.96
2022-12-05T04:40:00.541Z,16.96
2022-12-05T04:40:32.075Z,16.96
2022-12-05T04:41:03.470Z,16.95
2022-12-05T04:41:34.892Z,16.95
2022-12-05T04:42:06.278Z,16.94
2022-12-05T04:42:37.665Z,16.94
2022-12-05T04:43:09.139Z,16.94
2022-12-05T04:43:40.536Z,16.94
2022-12-05T04:44:11.933Z,16.93
2022-12-05T04:44:43.327Z,16.94
2022-12-05T04:45:14.740Z,16.94
2022-12-05T04:45:46.146Z,16.93
2022-12-05T04:46:17.594Z,16.94
2022-12-05T04:46:49.098Z,16.92
2022-12-05T04:47:20.686Z,16.93
2022-12-05T04:47:52.096Z,16.93
2022-12-05T04:48:23.504Z,16.92
2022-12-05T04:48:54.891Z,16.92
2022-12-05T04:49:26.299Z,16.92
2022-12-05T04:49:57.844Z,16.91
2022-12-05T04:50:29.410Z,16.92
2022-12-05T04:51:00.794Z,16.91
2022-12-05T04:51:32.189Z,16.92
2022-12-05T04:52:03.582Z,16.91
2022-12-05T04:52:34.974Z,16.91
2022-12-05T04:53:06.366Z,16.91
2022-12-05T04:53:37.778Z,16.91
2022-12-05T04:54:09.167Z,16.90
2022-12-05T04:54:40.687Z,16.91
2022-12-05T04:55:12.092Z,16.90
2022-12-05T04:55:43.630Z,16.90
2022-12-05T04:56:15.024Z,16.91
2022-12-05T04:56:46.411Z,16.90
2022-12-05T04:57:17.904Z,16.90
2022-12-05T04:57:49.300Z,16.91
2022-12-05T04:58:20.717Z,16.89
2022-12-05T04:58:52.107Z,16.90
2022-12-05T04:59:23.496Z,16.90
2022-12-05T04:59:54.972Z,16.89
2022-12-05T05:00:26.475Z,16.89
2022-12-05T05:00:57.858Z,16.90
2022-12-05T05:01:29.318Z,16.89
2022-12-05T05:02:00.783Z,16.89
2022-12-05T05:02:32.301Z,16.89
2022-12-05T05:03:03.801Z,16.89
2022-12-05T05:03:35.227Z,16.89
2022-12-05T05:04:06.615Z,16.88
2022-12-05T05:04:38.103Z,16.88
2022-12-05T05:05:13.787Z,16.88
2022-12-05T05:05:45.618Z,16.88
2022-12-05T05:06:17.007Z,16.88
2022-12-05T05:06:48.390Z,16.88
2022-12-05T05:07:19.889Z,16.88
2022-12-05T05:07:51.350Z,16.87
2022-12-05T05:08:22.822Z,16.87
2022-12-05T05:08:54.255Z,16.87
2022-12-05T05:09:25.653Z,16.87
2022-12-05T05:09:57.334Z,16.87
2022-12-05T05:10:28.935Z,16.87
2022-12-05T05:11:00.401Z,16.86
2022-12-05T05:11:31.796Z,16.86
2022-12-05T05:12:03.193Z,16.86
2022-12-05T05:12:34.662Z,16.86
2022-12-05T05:13:06.057Z,16.86
2022-12-05T05:13:37.448Z,16.86
2022-12-05T05:14:08.859Z,16.85
2022-12-05T05:14:40.242Z,16.84
2022-12-05T05:15:11.627Z,16.84
2022-12-05T05:15:43.041Z,16.84
2022-12-05T05:16:14.493Z,16.84
2022-12-05T05:16:45.946Z,16.84
2022-12-05T05:17:17.326Z,16.84
2022-12-05T05:17:48.833Z,16.83
2022-12-05T05:18:20.295Z,16.84
2022-12-05T05:18:51.698Z,16.83
2022-12-05T05:19:23.087Z,16.82
2022-12-05T05:19:54.474Z,16.82
2022-12-05T05:20:25.872Z,16.82
2022-12-05T05:20:57.264Z,16.82
2022-12-05T05:21:28.655Z,16.81
2022-12-05T05:22:00.082Z,16.82
2022-12-05T05:22:31.471Z,16.82
2022-12-05T05:23:03.012Z,16.81
2022-12-05T05:23:34.414Z,16.81
2022-12-05T05:24:05.803Z,16.82
2022-12-05T05:24:37.207Z,16.80
2022-12-05T05:25:08.590Z,16.80
2022-12-05T05:25:39.970Z,16.81
2022-12-05T05:26:11.363Z,16.80
2022-12-05T05:26:42.778Z,16.80
2022-12-05T05:27:14.162Z,16.80
2022-12-05T05:27:45.552Z,16.80
2022-12-05T05:28:17.053Z,16.81
2022-12-05T05:28:48.447Z,16.81
2022-12-05T05:29:19.839Z,16.81
2022-12-05T05:29:51.265Z,16.80
2022-12-05T05:30:22.660Z,16.80
2022-12-05T05:30:54.118Z,16.80
2022-12-05T05:31:25.616Z,16.80
2022-12-05T05:31:57.060Z,16.80
2022-12-05T05:32:28.529Z,16.79
2022-12-05T05:32:59.929Z,16.80
2022-12-05T05:33:31.437Z,16.80
2022-12-05T05:34:09.128Z,16.80
2022-12-05T05:34:41.307Z,16.79
2022-12-05T05:35:12.715Z,16.79
2022-12-05T05:35:44.127Z,16.79
2022-12-05T05:36:15.543Z,16.79
2022-12-05T05:36:46.941Z,16.79
2022-12-05T05:37:18.336Z,16.78
2022-12-05T05:37:49.729Z,16.77
2022-12-05T05:38:21.124Z,16.79
2022-12-05T05:38:52.640Z,16.79
2022-12-05T05:39:24.090Z,16.77
2022-12-05T05:39:55.860Z,16.77
2022-12-05T05:40:27.576Z,16.77
2022-12-05T05:40:58.958Z,16.79
2022-12-05T05:41:30.367Z,16.79
2022-12-05T05:42:01.775Z,16.79
2022-12-05T05:42:33.165Z,16.79
2022-12-05T05:43:04.565Z,16.79
2022-12-05T05:43:35.959Z,16.79
2022-12-05T05:44:07.418Z,16.79
2022-12-05T05:44:38.838Z,16.79
2022-12-05T05:45:10.228Z,16.79
2022-12-05T05:45:41.623Z,16.79
2022-12-05T05:46:13.096Z,16.77
2022-12-05T05:46:44.708Z,16.79
2022-12-05T05:47:16.180Z,16.79
2022-12-05T05:47:47.576Z,16.78
2022-12-05T05:48:18.964Z,16.77
2022-12-05T05:48:50.408Z,16.77
2022-12-05T05:49:21.882Z,16.77
2022-12-05T05:49:53.272Z,16.77
2022-12-05T05:50:24.678Z,16.76
2022-12-05T05:50:56.059Z,16.78
2022-12-05T05:51:27.452Z,16.76
2022-12-05T05:51:58.860Z,16.76
2022-12-05T05:52:30.300Z,16.76
2022-12-05T05:53:01.699Z,16.76
2022-12-05T05:53:33.094Z,16.75
2022-12-05T05:54:04.485Z,16.76
2022-12-05T05:54:35.966Z,16.76
2022-12-05T05:55:07.380Z,16.75
2022-12-05T05:55:38.767Z,16.75
2022-12-05T05:56:10.159Z,16.74
2022-12-05T05:56:41.563Z,16.74
2022-12-05T05:57:16.189Z,16.74
2022-12-05T05:57:51.564Z,16.74
2022-12-05T05:58:22.962Z,16.73
2022-12-05T05:58:54.346Z,16.73
2022-12-05T05:59:25.738Z,16.73
2022-12-05T05:59:57.381Z,16.72
2022-12-05T06:00:28.930Z,16.72
2022-12-05T06:01:00.325Z,16.72
2022-12-05T06:01:31.716Z,16.70
2022-12-05T06:02:03.121Z,16.71
2022-12-05T06:02:34.624Z,16.71
2022-12-05T06:03:06.244Z,16.71
2022-12-05T06:03:37.898Z,16.70
2022-12-05T06:04:09.412Z,16.69
2022-12-05T06:04:40.832Z,16.69
2022-12-05T06:05:12.379Z,16.69
2022-12-05T06:05:45.483Z,16.69
2022-12-05T06:06:20.144Z,16.69
2022-12-05T06:06:51.537Z,16.69
2022-12-05T06:07:22.951Z,16.69
2022-12-05T06:07:54.414Z,16.67
2022-12-05T06:08:25.924Z,16.68
2022-12-05T06:08:57.390Z,16.68
2022-12-05T06:09:28.799Z,16.67
2022-12-05T06:10:00.502Z,16.67
2022-12-05T06:10:32.264Z,16.67
2022-12-05T06:11:03.679Z,16.67
2022-12-05T06:11:35.091Z,16.67
2022-12-05T06:12:06.479Z,16.67
2022-12-05T06:12:37.871Z,16.67
2022-12-05T06:13:09.255Z,16.66
2022-12-05T06:13:40.644Z,16.66
2022-12-05T06:14:12.047Z,16.66
2022-12-05T06:14:43.450Z,16.65
2022-12-05T06:15:14.847Z,16.65
2022-12-05T06:15:46.432Z,16.64
2022-12-05T06:16:17.946Z,16.65
2022-12-05T06:16:49.406Z,16.64
2022-12-05T06:17:20.817Z,16.64
2022-12-05T06:17:52.216Z,16.64
2022-12-05T06:18:23.632Z,16.63
2022-12-05T06:18:55.019Z,16.63
2022-12-05T06:19:26.439Z,16.64
2022-12-05T06:19:58.003Z,16.62
2022-12-05T06:20:29.633Z,16.62
2022-12-05T06:21:01.092Z,16.62
2022-12-05T06:21:32.480Z,16.62
2022-12-05T06:22:03.872Z,16.62
2022-12-05T06:22:35.259Z,16.61
2022-12-05T06:23:06.663Z,16.61
2022-12-05T06:23:38.056Z,16.61
2022-12-05T06:24:09.448Z,16.62
2022-12-05T06:24:40.839Z,16.61
2022-12-05T06:25:12.236Z,16.61
2022-12-05T06:25:43.638Z,16.61
2022-12-05T06:26:15.094Z,16.60
2022-12-05T06:26:46.507Z,16.60
2022-12-05T06:27:17.916Z,16.60
2022-12-05T06:27:49.303Z,16.60
2022-12-05T06:28:20.698Z,16.60
2022-12-05T06:28:52.083Z,16.60
2022-12-05T06:29:26.183Z,16.60
2022-12-05T06:29:59.121Z,16.60
2022-12-05T06:30:30.766Z,16.59
2022-12-05T06:31:02.171Z,16.60
2022-12-05T06:31:33.657Z,16.58
2022-12-05T06:32:05.133Z,16.58
2022-12-05T06:32:36.579Z,16.58
2022-12-05T06:33:07.963Z,16.59
2022-12-05T06:33:39.365Z,16.58
2022-12-05T06:34:10.756Z,16.58
2022-12-05T06:34:42.153Z,16.57
2022-12-05T06:35:13.548Z,16.59
2022-12-05T06:35:44.958Z,16.57
2022-12-05T06:36:16.351Z,16.57
2022-12-05T06:36:47.783Z,16.57
2022-12-05T06:37:19.192Z,16.56
2022-12-05T06:37:50.575Z,16.57
2022-12-05T06:38:21.964Z,16.56
2022-12-05T06:38:53.358Z,16.57
2022-12-05T06:39:24.742Z,16.55
2022-12-05T06:39:56.483Z,16.55
2022-12-05T06:40:28.121Z,16.55
2022-12-05T06:40:59.511Z,16.55
2022-12-05T06:41:30.895Z,16.55
2022-12-05T06:42:02.309Z,16.53
2022-12-05T06:42:33.707Z,16.54
2022-12-05T06:43:05.097Z,16.54
2022-12-05T06:43:36.508Z,16.53
2022-12-05T06:44:07.915Z,16.53
2022-12-05T06:44:39.302Z,16.53
2022-12-05T06:45:10.771Z,16.53
2022-12-05T06:45:42.206Z,16.53